sensor_id;sensor_type;location;lat;lon;timestamp;P1;durP1;ratioP1;P2;durP2;ratioP2
43801;SDS011;29429;51.074;13.764;2023-05-10T00:02:00;3.00;;;1.80;;
43801;SDS011;29429;51.074;13.764;2023-05-10T00:04:28;4.63;;;1.77;;
43801;SDS011;29429;51.074;13.764;2023-05-10T00:06:55;2.97;;;1.70;;
43801;SDS011;29429;51.074;13.764;2023-05-10T00:09:25;3.65;;;1.95;;
43801;SDS011;29429;51.074;13.764;2023-05-10T00:11:53;2.42;;;1.80;;
43801;SDS011;29429;51.074;13.764;2023-05-10T00:14:25;1.75;;;1.40;;
43801;SDS011;29429;51.074;13.764;2023-05-10T00:16:56;2.72;;;1.90;;
43801;SDS011;29429;51.074;13.764;2023-05-10T00:19:28;2.20;;;1.50;;
43801;SDS011;29429;51.074;13.764;2023-05-10T00:22:16;3.22;;;1.92;;
43801;SDS011;29429;51.074;13.764;2023-05-10T00:24:47;1.70;;;1.45;;
43801;SDS011;29429;51.074;13.764;2023-05-10T00:27:16;3.22;;;1.70;;
43801;SDS011;29429;51.074;13.764;2023-05-10T00:30:03;3.22;;;1.58;;
43801;SDS011;29429;51.074;13.764;2023-05-10T00:36:10;4.15;;;1.73;;
43801;SDS011;29429;51.074;13.764;2023-05-10T00:39:32;3.60;;;1.50;;
43801;SDS011;29429;51.074;13.764;2023-05-10T00:43:24;3.55;;;2.00;;
43801;SDS011;29429;51.074;13.764;2023-05-10T00:46:19;3.60;;;1.55;;
43801;SDS011;29429;51.074;13.764;2023-05-10T00:49:09;2.22;;;1.67;;
43801;SDS011;29429;51.074;13.764;2023-05-10T00:51:37;3.33;;;1.70;;
43801;SDS011;29429;51.074;13.764;2023-05-10T00:54:07;2.55;;;1.50;;
43801;SDS011;29429;51.074;13.764;2023-05-10T00:56:42;3.17;;;1.58;;
43801;SDS011;29429;51.074;13.764;2023-05-10T01:00:06;2.30;;;1.45;;
43801;SDS011;29429;51.074;13.764;2023-05-10T01:02:51;2.28;;;1.35;;
43801;SDS011;29429;51.074;13.764;2023-05-10T01:05:30;2.17;;;1.50;;
43801;SDS011;29429;51.074;13.764;2023-05-10T01:07:58;2.25;;;1.40;;
43801;SDS011;29429;51.074;13.764;2023-05-10T01:20:39;2.42;;;1.55;;
43801;SDS011;29429;51.074;13.764;2023-05-10T01:23:36;3.58;;;1.55;;
43801;SDS011;29429;51.074;13.764;2023-05-10T01:26:48;3.20;;;1.80;;
43801;SDS011;29429;51.074;13.764;2023-05-10T01:39:55;3.03;;;1.20;;
43801;SDS011;29429;51.074;13.764;2023-05-10T01:46:32;1.70;;;1.33;;
43801;SDS011;29429;51.074;13.764;2023-05-10T01:56:00;2.92;;;1.65;;
43801;SDS011;29429;51.074;13.764;2023-05-10T01:58:28;1.70;;;1.38;;
43801;SDS011;29429;51.074;13.764;2023-05-10T02:01:00;2.10;;;1.60;;
43801;SDS011;29429;51.074;13.764;2023-05-10T02:04:07;2.40;;;1.17;;
43801;SDS011;29429;51.074;13.764;2023-05-10T02:06:39;2.38;;;1.50;;
43801;SDS011;29429;51.074;13.764;2023-05-10T02:09:44;2.70;;;1.60;;
43801;SDS011;29429;51.074;13.764;2023-05-10T02:12:46;3.10;;;1.40;;
43801;SDS011;29429;51.074;13.764;2023-05-10T02:21:37;2.22;;;1.60;;
43801;SDS011;29429;51.074;13.764;2023-05-10T02:30:12;2.95;;;1.65;;
43801;SDS011;29429;51.074;13.764;2023-05-10T02:33:29;2.05;;;1.55;;
43801;SDS011;29429;51.074;13.764;2023-05-10T02:36:13;2.10;;;1.40;;
43801;SDS011;29429;51.074;13.764;2023-05-10T02:38:50;3.15;;;1.65;;
43801;SDS011;29429;51.074;13.764;2023-05-10T02:41:34;4.07;;;1.40;;
43801;SDS011;29429;51.074;13.764;2023-05-10T02:44:11;3.78;;;1.70;;
43801;SDS011;29429;51.074;13.764;2023-05-10T02:47:26;3.53;;;1.50;;
43801;SDS011;29429;51.074;13.764;2023-05-10T02:52:59;2.28;;;1.58;;
43801;SDS011;29429;51.074;13.764;2023-05-10T02:55:49;1.95;;;1.45;;
43801;SDS011;29429;51.074;13.764;2023-05-10T02:58:28;2.55;;;1.60;;
43801;SDS011;29429;51.074;13.764;2023-05-10T03:01:12;3.05;;;1.35;;
43801;SDS011;29429;51.074;13.764;2023-05-10T03:04:09;1.77;;;1.60;;
43801;SDS011;29429;51.074;13.764;2023-05-10T03:06:40;3.08;;;1.55;;
43801;SDS011;29429;51.074;13.764;2023-05-10T03:09:08;3.22;;;1.60;;
43801;SDS011;29429;51.074;13.764;2023-05-10T03:12:00;3.70;;;1.77;;
43801;SDS011;29429;51.074;13.764;2023-05-10T03:20:16;4.43;;;1.80;;
43801;SDS011;29429;51.074;13.764;2023-05-10T03:22:55;2.63;;;1.63;;
43801;SDS011;29429;51.074;13.764;2023-05-10T03:25:54;4.05;;;1.70;;
43801;SDS011;29429;51.074;13.764;2023-05-10T03:28:46;4.78;;;1.90;;
43801;SDS011;29429;51.074;13.764;2023-05-10T03:31:27;2.80;;;1.88;;
43801;SDS011;29429;51.074;13.764;2023-05-10T03:33:59;2.70;;;1.90;;
43801;SDS011;29429;51.074;13.764;2023-05-10T03:36:50;2.97;;;1.92;;
43801;SDS011;29429;51.074;13.764;2023-05-10T03:39:22;3.05;;;1.48;;
43801;SDS011;29429;51.074;13.764;2023-05-10T03:41:57;6.20;;;2.22;;
43801;SDS011;29429;51.074;13.764;2023-05-10T03:44:32;3.25;;;1.75;;
43801;SDS011;29429;51.074;13.764;2023-05-10T03:47:04;3.35;;;1.77;;
43801;SDS011;29429;51.074;13.764;2023-05-10T03:49:39;2.53;;;1.50;;
43801;SDS011;29429;51.074;13.764;2023-05-10T03:52:19;2.80;;;1.40;;
43801;SDS011;29429;51.074;13.764;2023-05-10T03:58:33;2.60;;;1.65;;
43801;SDS011;29429;51.074;13.764;2023-05-10T04:01:29;2.20;;;1.80;;
43801;SDS011;29429;51.074;13.764;2023-05-10T04:04:08;4.43;;;2.17;;
43801;SDS011;29429;51.074;13.764;2023-05-10T04:06:52;2.55;;;1.65;;
43801;SDS011;29429;51.074;13.764;2023-05-10T04:09:30;2.90;;;1.52;;
43801;SDS011;29429;51.074;13.764;2023-05-10T04:12:03;2.47;;;1.67;;
43801;SDS011;29429;51.074;13.764;2023-05-10T04:14:36;3.63;;;1.60;;
43801;SDS011;29429;51.074;13.764;2023-05-10T04:17:10;2.10;;;1.45;;
43801;SDS011;29429;51.074;13.764;2023-05-10T04:20:10;4.40;;;1.67;;
43801;SDS011;29429;51.074;13.764;2023-05-10T04:22:50;1.92;;;1.50;;
43801;SDS011;29429;51.074;13.764;2023-05-10T04:25:17;2.30;;;1.67;;
43801;SDS011;29429;51.074;13.764;2023-05-10T04:28:15;1.65;;;1.30;;
43801;SDS011;29429;51.074;13.764;2023-05-10T04:30:52;1.88;;;1.40;;
43801;SDS011;29429;51.074;13.764;2023-05-10T04:36:58;2.95;;;1.40;;
43801;SDS011;29429;51.074;13.764;2023-05-10T04:40:04;2.30;;;1.58;;
43801;SDS011;29429;51.074;13.764;2023-05-10T04:42:35;2.75;;;1.77;;
43801;SDS011;29429;51.074;13.764;2023-05-10T04:45:07;2.47;;;1.50;;
43801;SDS011;29429;51.074;13.764;2023-05-10T04:47:36;5.13;;;1.75;;
43801;SDS011;29429;51.074;13.764;2023-05-10T04:50:08;1.83;;;1.60;;
43801;SDS011;29429;51.074;13.764;2023-05-10T04:52:40;3.03;;;1.52;;
43801;SDS011;29429;51.074;13.764;2023-05-10T04:55:10;2.53;;;1.30;;
43801;SDS011;29429;51.074;13.764;2023-05-10T04:57:37;4.55;;;1.50;;
43801;SDS011;29429;51.074;13.764;2023-05-10T05:00:09;2.45;;;1.27;;
43801;SDS011;29429;51.074;13.764;2023-05-10T05:02:43;4.93;;;1.90;;
43801;SDS011;29429;51.074;13.764;2023-05-10T05:05:25;3.13;;;1.30;;
43801;SDS011;29429;51.074;13.764;2023-05-10T05:10:47;3.38;;;1.80;;
43801;SDS011;29429;51.074;13.764;2023-05-10T05:16:17;1.88;;;1.45;;
43801;SDS011;29429;51.074;13.764;2023-05-10T05:18:56;3.58;;;1.52;;
43801;SDS011;29429;51.074;13.764;2023-05-10T05:21:23;3.25;;;2.42;;
43801;SDS011;29429;51.074;13.764;2023-05-10T05:23:53;2.83;;;1.70;;
43801;SDS011;29429;51.074;13.764;2023-05-10T05:26:21;3.33;;;2.28;;
43801;SDS011;29429;51.074;13.764;2023-05-10T05:28:49;1.75;;;1.42;;
43801;SDS011;29429;51.074;13.764;2023-05-10T05:31:23;2.42;;;1.40;;
43801;SDS011;29429;51.074;13.764;2023-05-10T05:33:52;4.90;;;1.58;;
43801;SDS011;29429;51.074;13.764;2023-05-10T05:36:39;2.90;;;1.42;;
43801;SDS011;29429;51.074;13.764;2023-05-10T05:40:35;3.15;;;1.27;;
43801;SDS011;29429;51.074;13.764;2023-05-10T05:56:10;4.20;;;1.70;;
43801;SDS011;29429;51.074;13.764;2023-05-10T05:58:38;2.90;;;1.65;;
43801;SDS011;29429;51.074;13.764;2023-05-10T06:07:20;3.85;;;1.83;;
43801;SDS011;29429;51.074;13.764;2023-05-10T06:09:51;3.45;;;1.77;;
43801;SDS011;29429;51.074;13.764;2023-05-10T06:13:08;3.13;;;1.77;;
43801;SDS011;29429;51.074;13.764;2023-05-10T06:15:56;1.75;;;1.55;;
43801;SDS011;29429;51.074;13.764;2023-05-10T06:18:23;4.35;;;1.77;;
43801;SDS011;29429;51.074;13.764;2023-05-10T06:20:52;3.17;;;1.40;;
43801;SDS011;29429;51.074;13.764;2023-05-10T06:23:20;2.47;;;1.50;;
43801;SDS011;29429;51.074;13.764;2023-05-10T06:25:48;1.50;;;1.30;;
43801;SDS011;29429;51.074;13.764;2023-05-10T06:31:29;2.67;;;1.67;;
43801;SDS011;29429;51.074;13.764;2023-05-10T06:34:01;4.32;;;1.40;;
43801;SDS011;29429;51.074;13.764;2023-05-10T06:36:29;3.33;;;1.80;;
43801;SDS011;29429;51.074;13.764;2023-05-10T06:39:17;3.08;;;1.80;;
43801;SDS011;29429;51.074;13.764;2023-05-10T06:42:01;3.58;;;1.70;;
43801;SDS011;29429;51.074;13.764;2023-05-10T06:45:06;7.40;;;1.80;;
43801;SDS011;29429;51.074;13.764;2023-05-10T06:47:54;3.67;;;1.90;;
43801;SDS011;29429;51.074;13.764;2023-05-10T06:50:29;4.97;;;1.60;;
43801;SDS011;29429;51.074;13.764;2023-05-10T06:52:57;2.38;;;1.55;;
43801;SDS011;29429;51.074;13.764;2023-05-10T06:55:25;4.82;;;1.85;;
43801;SDS011;29429;51.074;13.764;2023-05-10T06:57:53;3.03;;;1.95;;
43801;SDS011;29429;51.074;13.764;2023-05-10T07:00:21;2.80;;;1.63;;
43801;SDS011;29429;51.074;13.764;2023-05-10T07:02:48;3.78;;;1.80;;
43801;SDS011;29429;51.074;13.764;2023-05-10T07:05:16;4.75;;;2.53;;
43801;SDS011;29429;51.074;13.764;2023-05-10T07:07:44;3.28;;;1.80;;
43801;SDS011;29429;51.074;13.764;2023-05-10T07:10:11;5.75;;;1.98;;
43801;SDS011;29429;51.074;13.764;2023-05-10T07:12:39;4.13;;;1.90;;
43801;SDS011;29429;51.074;13.764;2023-05-10T07:15:07;4.03;;;2.15;;
43801;SDS011;29429;51.074;13.764;2023-05-10T07:17:35;2.45;;;1.48;;
43801;SDS011;29429;51.074;13.764;2023-05-10T07:20:09;3.17;;;1.75;;
43801;SDS011;29429;51.074;13.764;2023-05-10T07:22:37;4.05;;;1.80;;
43801;SDS011;29429;51.074;13.764;2023-05-10T07:25:04;6.15;;;1.85;;
43801;SDS011;29429;51.074;13.764;2023-05-10T07:27:32;3.13;;;1.75;;
43801;SDS011;29429;51.074;13.764;2023-05-10T07:29:59;2.47;;;1.88;;
43801;SDS011;29429;51.074;13.764;2023-05-10T07:32:27;3.17;;;1.95;;
43801;SDS011;29429;51.074;13.764;2023-05-10T07:34:55;3.00;;;1.67;;
43801;SDS011;29429;51.074;13.764;2023-05-10T07:37:23;3.90;;;2.00;;
43801;SDS011;29429;51.074;13.764;2023-05-10T07:39:59;4.47;;;2.10;;
43801;SDS011;29429;51.074;13.764;2023-05-10T07:42:26;4.05;;;1.83;;
43801;SDS011;29429;51.074;13.764;2023-05-10T07:44:54;2.60;;;2.05;;
43801;SDS011;29429;51.074;13.764;2023-05-10T07:47:21;2.67;;;2.08;;
43801;SDS011;29429;51.074;13.764;2023-05-10T07:49:49;2.60;;;1.73;;
43801;SDS011;29429;51.074;13.764;2023-05-10T07:52:17;2.83;;;2.00;;
43801;SDS011;29429;51.074;13.764;2023-05-10T07:54:48;3.30;;;2.13;;
43801;SDS011;29429;51.074;13.764;2023-05-10T07:57:15;3.55;;;2.03;;
43801;SDS011;29429;51.074;13.764;2023-05-10T07:59:44;3.97;;;2.10;;
43801;SDS011;29429;51.074;13.764;2023-05-10T08:02:11;3.00;;;1.88;;
43801;SDS011;29429;51.074;13.764;2023-05-10T08:07:44;4.32;;;2.40;;
43801;SDS011;29429;51.074;13.764;2023-05-10T08:10:13;3.85;;;2.28;;
43801;SDS011;29429;51.074;13.764;2023-05-10T08:12:40;3.85;;;2.25;;
43801;SDS011;29429;51.074;13.764;2023-05-10T08:15:14;3.63;;;2.13;;
43801;SDS011;29429;51.074;13.764;2023-05-10T08:17:44;3.78;;;2.05;;
43801;SDS011;29429;51.074;13.764;2023-05-10T08:20:12;3.92;;;2.35;;
43801;SDS011;29429;51.074;13.764;2023-05-10T08:22:43;4.97;;;2.47;;
43801;SDS011;29429;51.074;13.764;2023-05-10T08:25:17;2.92;;;2.30;;
43801;SDS011;29429;51.074;13.764;2023-05-10T08:27:44;3.80;;;2.20;;
43801;SDS011;29429;51.074;13.764;2023-05-10T08:30:12;2.45;;;1.90;;
43801;SDS011;29429;51.074;13.764;2023-05-10T08:32:40;2.38;;;1.98;;
43801;SDS011;29429;51.074;13.764;2023-05-10T08:35:08;5.78;;;2.28;;
43801;SDS011;29429;51.074;13.764;2023-05-10T08:37:36;2.55;;;1.98;;
43801;SDS011;29429;51.074;13.764;2023-05-10T08:40:03;2.72;;;2.10;;
43801;SDS011;29429;51.074;13.764;2023-05-10T08:42:32;2.85;;;1.95;;
43801;SDS011;29429;51.074;13.764;2023-05-10T08:45:04;5.05;;;2.17;;
43801;SDS011;29429;51.074;13.764;2023-05-10T08:47:34;5.32;;;2.30;;
43801;SDS011;29429;51.074;13.764;2023-05-10T08:50:04;2.88;;;1.90;;
43801;SDS011;29429;51.074;13.764;2023-05-10T08:52:32;4.32;;;2.13;;
43801;SDS011;29429;51.074;13.764;2023-05-10T08:55:05;3.70;;;2.38;;
43801;SDS011;29429;51.074;13.764;2023-05-10T08:57:33;4.78;;;1.90;;
43801;SDS011;29429;51.074;13.764;2023-05-10T09:00:01;3.47;;;1.95;;
43801;SDS011;29429;51.074;13.764;2023-05-10T09:02:30;2.30;;;2.00;;
43801;SDS011;29429;51.074;13.764;2023-05-10T09:05:23;5.10;;;2.28;;
43801;SDS011;29429;51.074;13.764;2023-05-10T09:07:53;3.75;;;2.35;;
43801;SDS011;29429;51.074;13.764;2023-05-10T09:10:21;2.20;;;2.00;;
43801;SDS011;29429;51.074;13.764;2023-05-10T09:12:49;2.70;;;2.10;;
43801;SDS011;29429;51.074;13.764;2023-05-10T09:15:17;2.95;;;1.75;;
43801;SDS011;29429;51.074;13.764;2023-05-10T09:17:46;2.70;;;2.08;;
43801;SDS011;29429;51.074;13.764;2023-05-10T09:20:17;3.50;;;1.95;;
43801;SDS011;29429;51.074;13.764;2023-05-10T09:25:19;3.35;;;1.83;;
43801;SDS011;29429;51.074;13.764;2023-05-10T09:27:47;4.15;;;2.20;;
43801;SDS011;29429;51.074;13.764;2023-05-10T09:30:19;4.22;;;2.05;;
43801;SDS011;29429;51.074;13.764;2023-05-10T09:32:59;4.43;;;3.25;;
43801;SDS011;29429;51.074;13.764;2023-05-10T09:35:38;6.45;;;2.40;;
43801;SDS011;29429;51.074;13.764;2023-05-10T09:38:06;3.67;;;2.17;;
43801;SDS011;29429;51.074;13.764;2023-05-10T09:40:33;4.18;;;2.47;;
43801;SDS011;29429;51.074;13.764;2023-05-10T09:43:06;4.65;;;2.03;;
43801;SDS011;29429;51.074;13.764;2023-05-10T09:45:35;4.15;;;1.92;;
43801;SDS011;29429;51.074;13.764;2023-05-10T09:48:04;5.80;;;2.75;;
43801;SDS011;29429;51.074;13.764;2023-05-10T09:50:32;4.38;;;2.45;;
43801;SDS011;29429;51.074;13.764;2023-05-10T09:53:01;2.60;;;2.00;;
43801;SDS011;29429;51.074;13.764;2023-05-10T09:58:07;1.92;;;1.70;;
43801;SDS011;29429;51.074;13.764;2023-05-10T10:00:41;4.18;;;2.35;;
43801;SDS011;29429;51.074;13.764;2023-05-10T10:03:18;2.20;;;1.63;;
43801;SDS011;29429;51.074;13.764;2023-05-10T10:05:47;3.00;;;2.33;;
43801;SDS011;29429;51.074;13.764;2023-05-10T10:08:15;2.30;;;2.00;;
43801;SDS011;29429;51.074;13.764;2023-05-10T10:10:43;2.47;;;2.15;;
43801;SDS011;29429;51.074;13.764;2023-05-10T10:13:12;2.88;;;2.10;;
43801;SDS011;29429;51.074;13.764;2023-05-10T10:15:41;4.97;;;2.60;;
43801;SDS011;29429;51.074;13.764;2023-05-10T10:18:12;3.55;;;1.83;;
43801;SDS011;29429;51.074;13.764;2023-05-10T10:20:41;3.25;;;2.30;;
43801;SDS011;29429;51.074;13.764;2023-05-10T10:23:09;4.50;;;2.58;;
43801;SDS011;29429;51.074;13.764;2023-05-10T10:25:37;4.25;;;2.20;;
43801;SDS011;29429;51.074;13.764;2023-05-10T10:28:11;5.45;;;2.35;;
43801;SDS011;29429;51.074;13.764;2023-05-10T10:30:48;2.47;;;2.28;;
43801;SDS011;29429;51.074;13.764;2023-05-10T10:33:30;3.28;;;2.08;;
43801;SDS011;29429;51.074;13.764;2023-05-10T10:36:40;2.67;;;2.00;;
43801;SDS011;29429;51.074;13.764;2023-05-10T10:39:13;2.88;;;2.10;;
43801;SDS011;29429;51.074;13.764;2023-05-10T10:41:49;4.32;;;2.33;;
43801;SDS011;29429;51.074;13.764;2023-05-10T10:47:04;2.28;;;2.08;;
43801;SDS011;29429;51.074;13.764;2023-05-10T10:49:42;3.88;;;2.40;;
43801;SDS011;29429;51.074;13.764;2023-05-10T10:52:25;4.30;;;2.30;;
43801;SDS011;29429;51.074;13.764;2023-05-10T10:55:04;2.65;;;2.20;;
43801;SDS011;29429;51.074;13.764;2023-05-10T11:02:58;2.33;;;1.95;;
43801;SDS011;29429;51.074;13.764;2023-05-10T11:16:20;8.63;;;2.88;;
43801;SDS011;29429;51.074;13.764;2023-05-10T11:21:28;3.75;;;1.92;;
43801;SDS011;29429;51.074;13.764;2023-05-10T11:24:00;4.80;;;2.33;;
43801;SDS011;29429;51.074;13.764;2023-05-10T11:26:33;3.92;;;1.90;;
43801;SDS011;29429;51.074;13.764;2023-05-10T11:29:02;2.67;;;2.30;;
43801;SDS011;29429;51.074;13.764;2023-05-10T11:31:31;3.88;;;2.85;;
43801;SDS011;29429;51.074;13.764;2023-05-10T11:33:59;3.15;;;2.28;;
43801;SDS011;29429;51.074;13.764;2023-05-10T11:36:34;3.65;;;2.20;;
43801;SDS011;29429;51.074;13.764;2023-05-10T11:39:03;3.83;;;2.42;;
43801;SDS011;29429;51.074;13.764;2023-05-10T11:41:32;4.88;;;2.22;;
43801;SDS011;29429;51.074;13.764;2023-05-10T11:43:59;3.80;;;2.08;;
43801;SDS011;29429;51.074;13.764;2023-05-10T11:52:25;4.95;;;2.00;;
43801;SDS011;29429;51.074;13.764;2023-05-10T11:54:53;2.15;;;1.77;;
43801;SDS011;29429;51.074;13.764;2023-05-10T11:57:25;4.22;;;2.10;;
43801;SDS011;29429;51.074;13.764;2023-05-10T11:59:59;3.70;;;2.30;;
43801;SDS011;29429;51.074;13.764;2023-05-10T12:02:34;3.05;;;2.08;;
43801;SDS011;29429;51.074;13.764;2023-05-10T12:05:08;4.72;;;2.25;;
43801;SDS011;29429;51.074;13.764;2023-05-10T12:07:37;4.80;;;2.70;;
43801;SDS011;29429;51.074;13.764;2023-05-10T12:10:14;3.58;;;2.35;;
43801;SDS011;29429;51.074;13.764;2023-05-10T12:12:45;4.15;;;2.10;;
43801;SDS011;29429;51.074;13.764;2023-05-10T12:15:18;5.85;;;2.30;;
43801;SDS011;29429;51.074;13.764;2023-05-10T12:17:58;2.65;;;1.92;;
43801;SDS011;29429;51.074;13.764;2023-05-10T12:20:27;2.50;;;2.00;;
43801;SDS011;29429;51.074;13.764;2023-05-10T12:22:56;2.47;;;2.08;;
43801;SDS011;29429;51.074;13.764;2023-05-10T12:25:29;3.20;;;2.10;;
43801;SDS011;29429;51.074;13.764;2023-05-10T12:28:03;2.63;;;2.10;;
43801;SDS011;29429;51.074;13.764;2023-05-10T12:30:32;2.45;;;2.10;;
43801;SDS011;29429;51.074;13.764;2023-05-10T12:33:12;3.03;;;2.20;;
43801;SDS011;29429;51.074;13.764;2023-05-10T12:38:46;3.67;;;2.55;;
43801;SDS011;29429;51.074;13.764;2023-05-10T12:41:17;4.53;;;2.15;;
43801;SDS011;29429;51.074;13.764;2023-05-10T12:43:44;2.35;;;1.98;;
43801;SDS011;29429;51.074;13.764;2023-05-10T12:46:13;2.50;;;2.30;;
43801;SDS011;29429;51.074;13.764;2023-05-10T12:48:46;2.53;;;2.00;;
43801;SDS011;29429;51.074;13.764;2023-05-10T12:51:25;2.85;;;2.22;;
43801;SDS011;29429;51.074;13.764;2023-05-10T12:53:52;3.35;;;1.83;;
43801;SDS011;29429;51.074;13.764;2023-05-10T12:56:20;2.15;;;1.92;;
43801;SDS011;29429;51.074;13.764;2023-05-10T12:58:48;3.08;;;2.40;;
43801;SDS011;29429;51.074;13.764;2023-05-10T13:01:23;5.72;;;2.60;;
43801;SDS011;29429;51.074;13.764;2023-05-10T13:03:57;2.67;;;2.17;;
43801;SDS011;29429;51.074;13.764;2023-05-10T13:06:26;2.78;;;2.28;;
43801;SDS011;29429;51.074;13.764;2023-05-10T13:09:12;4.00;;;2.20;;
43801;SDS011;29429;51.074;13.764;2023-05-10T13:11:39;2.60;;;2.28;;
43801;SDS011;29429;51.074;13.764;2023-05-10T13:14:07;3.58;;;2.10;;
43801;SDS011;29429;51.074;13.764;2023-05-10T13:16:34;2.70;;;2.08;;
43801;SDS011;29429;51.074;13.764;2023-05-10T13:19:02;3.80;;;2.38;;
43801;SDS011;29429;51.074;13.764;2023-05-10T13:21:33;3.33;;;1.88;;
43801;SDS011;29429;51.074;13.764;2023-05-10T13:24:02;3.72;;;2.40;;
43801;SDS011;29429;51.074;13.764;2023-05-10T13:26:29;3.78;;;2.08;;
43801;SDS011;29429;51.074;13.764;2023-05-10T13:28:57;3.60;;;1.88;;
43801;SDS011;29429;51.074;13.764;2023-05-10T13:31:28;2.60;;;2.10;;
43801;SDS011;29429;51.074;13.764;2023-05-10T13:33:55;3.00;;;1.77;;
43801;SDS011;29429;51.074;13.764;2023-05-10T13:37:02;3.65;;;1.90;;
43801;SDS011;29429;51.074;13.764;2023-05-10T13:39:33;3.35;;;2.00;;
43801;SDS011;29429;51.074;13.764;2023-05-10T13:42:00;3.38;;;2.35;;
43801;SDS011;29429;51.074;13.764;2023-05-10T13:44:29;2.83;;;2.28;;
43801;SDS011;29429;51.074;13.764;2023-05-10T13:46:57;3.78;;;2.20;;
43801;SDS011;29429;51.074;13.764;2023-05-10T13:49:31;2.83;;;1.88;;
43801;SDS011;29429;51.074;13.764;2023-05-10T13:52:05;4.53;;;2.00;;
43801;SDS011;29429;51.074;13.764;2023-05-10T14:07:51;4.07;;;1.60;;
43801;SDS011;29429;51.074;13.764;2023-05-10T14:11:23;3.42;;;2.30;;
43801;SDS011;29429;51.074;13.764;2023-05-10T14:13:50;4.57;;;2.13;;
43801;SDS011;29429;51.074;13.764;2023-05-10T14:16:21;2.28;;;2.00;;
43801;SDS011;29429;51.074;13.764;2023-05-10T14:18:48;2.42;;;1.80;;
43801;SDS011;29429;51.074;13.764;2023-05-10T14:21:18;2.10;;;1.90;;
43801;SDS011;29429;51.074;13.764;2023-05-10T14:23:45;3.22;;;1.98;;
43801;SDS011;29429;51.074;13.764;2023-05-10T14:26:12;3.22;;;2.22;;
43801;SDS011;29429;51.074;13.764;2023-05-10T14:28:44;2.58;;;2.25;;
43801;SDS011;29429;51.074;13.764;2023-05-10T14:34:08;3.33;;;2.10;;
43801;SDS011;29429;51.074;13.764;2023-05-10T14:39:33;3.30;;;1.88;;
43801;SDS011;29429;51.074;13.764;2023-05-10T14:44:55;2.00;;;1.58;;
43801;SDS011;29429;51.074;13.764;2023-05-10T14:47:22;2.50;;;1.70;;
43801;SDS011;29429;51.074;13.764;2023-05-10T14:49:50;2.40;;;1.90;;
43801;SDS011;29429;51.074;13.764;2023-05-10T14:52:36;4.15;;;2.10;;
43801;SDS011;29429;51.074;13.764;2023-05-10T14:55:26;2.35;;;2.15;;
43801;SDS011;29429;51.074;13.764;2023-05-10T14:57:54;4.78;;;2.03;;
43801;SDS011;29429;51.074;13.764;2023-05-10T15:00:25;4.38;;;2.55;;
43801;SDS011;29429;51.074;13.764;2023-05-10T15:02:57;4.70;;;2.42;;
43801;SDS011;29429;51.074;13.764;2023-05-10T15:13:32;5.80;;;2.47;;
43801;SDS011;29429;51.074;13.764;2023-05-10T15:17:32;2.60;;;2.10;;
43801;SDS011;29429;51.074;13.764;2023-05-10T15:20:37;3.00;;;2.47;;
43801;SDS011;29429;51.074;13.764;2023-05-10T15:27:15;6.22;;;2.40;;
43801;SDS011;29429;51.074;13.764;2023-05-10T15:29:43;2.95;;;1.98;;
43801;SDS011;29429;51.074;13.764;2023-05-10T15:32:16;2.38;;;2.13;;
43801;SDS011;29429;51.074;13.764;2023-05-10T15:34:49;3.45;;;2.25;;
43801;SDS011;29429;51.074;13.764;2023-05-10T15:37:21;3.10;;;2.22;;
43801;SDS011;29429;51.074;13.764;2023-05-10T15:39:53;2.92;;;1.90;;
43801;SDS011;29429;51.074;13.764;2023-05-10T15:42:26;4.68;;;2.50;;
43801;SDS011;29429;51.074;13.764;2023-05-10T15:44:55;3.72;;;2.40;;
43801;SDS011;29429;51.074;13.764;2023-05-10T15:47:33;3.10;;;1.98;;
43801;SDS011;29429;51.074;13.764;2023-05-10T15:51:32;4.22;;;2.20;;
43801;SDS011;29429;51.074;13.764;2023-05-10T15:57:33;4.20;;;2.13;;
43801;SDS011;29429;51.074;13.764;2023-05-10T16:04:23;3.78;;;2.13;;
43801;SDS011;29429;51.074;13.764;2023-05-10T16:07:39;3.95;;;2.60;;
43801;SDS011;29429;51.074;13.764;2023-05-10T16:10:18;3.03;;;2.08;;
43801;SDS011;29429;51.074;13.764;2023-05-10T16:13:01;4.53;;;1.90;;
43801;SDS011;29429;51.074;13.764;2023-05-10T16:19:27;2.45;;;2.00;;
43801;SDS011;29429;51.074;13.764;2023-05-10T16:22:23;3.10;;;2.05;;
43801;SDS011;29429;51.074;13.764;2023-05-10T16:25:07;2.67;;;2.05;;
43801;SDS011;29429;51.074;13.764;2023-05-10T16:34:35;5.43;;;2.35;;
43801;SDS011;29429;51.074;13.764;2023-05-10T16:40:47;2.20;;;1.90;;
43801;SDS011;29429;51.074;13.764;2023-05-10T16:43:16;4.07;;;2.13;;
43801;SDS011;29429;51.074;13.764;2023-05-10T16:45:44;3.00;;;2.70;;
43801;SDS011;29429;51.074;13.764;2023-05-10T16:48:11;3.58;;;2.72;;
43801;SDS011;29429;51.074;13.764;2023-05-10T16:50:42;3.15;;;2.30;;
43801;SDS011;29429;51.074;13.764;2023-05-10T16:53:09;4.55;;;2.72;;
43801;SDS011;29429;51.074;13.764;2023-05-10T16:55:37;3.60;;;2.22;;
43801;SDS011;29429;51.074;13.764;2023-05-10T16:58:04;7.20;;;3.13;;
43801;SDS011;29429;51.074;13.764;2023-05-10T17:00:32;2.75;;;1.98;;
43801;SDS011;29429;51.074;13.764;2023-05-10T17:02:59;2.50;;;2.28;;
43801;SDS011;29429;51.074;13.764;2023-05-10T17:05:27;3.42;;;2.97;;
43801;SDS011;29429;51.074;13.764;2023-05-10T17:07:55;3.03;;;2.60;;
43801;SDS011;29429;51.074;13.764;2023-05-10T17:10:23;5.72;;;2.67;;
43801;SDS011;29429;51.074;13.764;2023-05-10T17:12:51;5.97;;;2.63;;
43801;SDS011;29429;51.074;13.764;2023-05-10T17:15:19;4.38;;;2.90;;
43801;SDS011;29429;51.074;13.764;2023-05-10T17:17:47;4.13;;;2.35;;
43801;SDS011;29429;51.074;13.764;2023-05-10T17:20:14;3.10;;;2.50;;
43801;SDS011;29429;51.074;13.764;2023-05-10T17:22:41;2.80;;;2.53;;
43801;SDS011;29429;51.074;13.764;2023-05-10T17:25:09;4.13;;;2.50;;
43801;SDS011;29429;51.074;13.764;2023-05-10T17:27:36;2.60;;;2.20;;
43801;SDS011;29429;51.074;13.764;2023-05-10T17:30:04;5.68;;;2.83;;
43801;SDS011;29429;51.074;13.764;2023-05-10T17:32:32;5.18;;;2.42;;
43801;SDS011;29429;51.074;13.764;2023-05-10T17:35:00;3.05;;;2.50;;
43801;SDS011;29429;51.074;13.764;2023-05-10T17:37:35;3.65;;;2.63;;
43801;SDS011;29429;51.074;13.764;2023-05-10T17:40:02;3.20;;;2.33;;
43801;SDS011;29429;51.074;13.764;2023-05-10T17:42:38;4.30;;;2.88;;
43801;SDS011;29429;51.074;13.764;2023-05-10T17:45:08;3.95;;;2.53;;
43801;SDS011;29429;51.074;13.764;2023-05-10T17:47:46;2.63;;;2.05;;
43801;SDS011;29429;51.074;13.764;2023-05-10T17:50:21;4.57;;;2.35;;
43801;SDS011;29429;51.074;13.764;2023-05-10T17:52:52;2.75;;;2.15;;
43801;SDS011;29429;51.074;13.764;2023-05-10T17:55:25;4.35;;;2.15;;
43801;SDS011;29429;51.074;13.764;2023-05-10T17:57:55;4.93;;;2.17;;
43801;SDS011;29429;51.074;13.764;2023-05-10T18:00:25;2.70;;;2.10;;
43801;SDS011;29429;51.074;13.764;2023-05-10T18:02:56;4.45;;;2.30;;
43801;SDS011;29429;51.074;13.764;2023-05-10T18:05:23;3.92;;;2.08;;
43801;SDS011;29429;51.074;13.764;2023-05-10T18:07:51;3.22;;;1.85;;
43801;SDS011;29429;51.074;13.764;2023-05-10T18:10:18;4.40;;;2.45;;
43801;SDS011;29429;51.074;13.764;2023-05-10T18:12:46;5.90;;;2.60;;
43801;SDS011;29429;51.074;13.764;2023-05-10T18:15:15;2.75;;;2.10;;
43801;SDS011;29429;51.074;13.764;2023-05-10T18:17:43;2.08;;;1.70;;
43801;SDS011;29429;51.074;13.764;2023-05-10T18:20:11;2.10;;;1.40;;
43801;SDS011;29429;51.074;13.764;2023-05-10T18:22:38;3.83;;;1.60;;
43801;SDS011;29429;51.074;13.764;2023-05-10T18:25:06;2.72;;;1.95;;
43801;SDS011;29429;51.074;13.764;2023-05-10T18:27:34;1.73;;;1.50;;